Time;durP1;ratioP1;P1;durP2;ratioP2;P2;SDS_P1;SDS_P2;PMS_P1;PMS_P2;Temp;Humidity;BMP_temperature;BMP_pressure;BME280_temperature;BME280_humidity;BME280_pressure;Samples;Min_cycle;Max_cycle;Signal;HPM_P1;HPM_P2
2022/08/30 00:02:46;;;;;;;20.38;10.02;;;;;;;;;;6084070;23;20234;-89
2022/08/30 00:05:51;;;;;;;17.52;9.93;;;;;;;;;;6084627;23;20199;-89
2022/08/30 00:08:58;;;;;;;18.45;10.45;;;;;;;;;;6085123;23;20173;-89
2022/08/30 00:12:04;;;;;;;16.20;10.10;;;;;;;;;;6084994;23;20315;-89
2022/08/30 00:15:09;;;;;;;20.73;9.88;;;;;;;;;;6083319;23;20261;-88
2022/08/30 00:18:16;;;;;;;19.80;10.27;;;;;;;;;;6084654;23;20178;-88
2022/08/30 00:21:25;;;;;;;14.45;9.63;;;;;;;;;;6083705;23;20611;-88
2022/08/30 00:24:32;;;;;;;14.52;9.65;;;;;;;;;;6084264;23;20166;-90
2022/08/30 00:27:37;;;;;;;25.65;10.70;;;;;;;;;;6084183;23;20630;-88
2022/08/30 00:30:42;;;;;;;17.40;9.30;;;;;;;;;;6082236;23;20174;-87
2022/08/30 00:33:48;;;;;;;18.67;9.90;;;;;;;;;;6100526;23;20174;-88
2022/08/30 00:36:52;;;;;;;16.25;10.07;;;;;;;;;;6083950;23;20170;-89
2022/08/30 00:39:59;;;;;;;18.30;9.73;;;;;;;;;;6101406;23;20165;-90
2022/08/30 00:43:06;;;;;;;18.70;10.77;;;;;;;;;;6082883;23;20174;-87
2022/08/30 00:46:11;;;;;;;22.75;11.13;;;;;;;;;;6083131;23;20631;-88
2022/08/30 00:49:16;;;;;;;18.52;11.65;;;;;;;;;;6084515;23;20244;-88
2022/08/30 00:52:22;;;;;;;18.80;11.48;;;;;;;;;;6084195;23;20505;-89
2022/08/30 00:55:29;;;;;;;20.55;11.52;;;;;;;;;;6083730;23;20529;-88
2022/08/30 00:58:36;;;;;;;23.60;11.38;;;;;;;;;;6084843;23;20222;-89
2022/08/30 01:01:41;;;;;;;19.00;10.90;;;;;;;;;;6083490;23;20597;-88
2022/08/30 01:04:46;;;;;;;22.17;11.10;;;;;;;;;;6082707;23;20238;-87
2022/08/30 01:07:51;;;;;;;22.20;12.25;;;;;;;;;;6083632;23;20242;-87
2022/08/30 01:10:58;;;;;;;22.83;11.45;;;;;;;;;;6083713;23;20286;-90
2022/08/30 01:14:03;;;;;;;25.80;11.02;;;;;;;;;;6083521;23;20530;-88
2022/08/30 01:17:09;;;;;;;22.35;13.23;;;;;;;;;;6083951;23;20630;-89
2022/08/30 01:20:16;;;;;;;26.05;13.23;;;;;;;;;;6081923;23;20221;-88
2022/08/30 01:23:23;;;;;;;25.70;13.23;;;;;;;;;;6083545;23;20202;-87
2022/08/30 01:26:29;;;;;;;24.80;12.93;;;;;;;;;;6084006;23;20170;-89
2022/08/30 01:29:34;;;;;;;33.60;13.27;;;;;;;;;;6083708;23;20173;-87
2022/08/30 01:32:40;;;;;;;21.05;13.15;;;;;;;;;;6083390;23;20169;-89
2022/08/30 01:35:47;;;;;;;22.85;13.00;;;;;;;;;;6084222;23;20202;-89
2022/08/30 01:38:55;;;;;;;25.50;12.63;;;;;;;;;;6083919;23;20174;-89
2022/08/30 01:42:00;;;;;;;28.88;12.43;;;;;;;;;;6084147;23;20234;-87
2022/08/30 01:45:06;;;;;;;24.40;12.20;;;;;;;;;;6083257;23;20246;-87
2022/08/30 01:48:12;;;;;;;21.38;12.68;;;;;;;;;;6084518;23;20491;-89
2022/08/30 01:51:16;;;;;;;20.48;12.05;;;;;;;;;;6083772;23;20178;-88
2022/08/30 01:54:23;;;;;;;38.45;11.57;;;;;;;;;;6100240;23;20194;-87
2022/08/30 01:57:28;;;;;;;26.75;13.23;;;;;;;;;;6084148;23;20218;-89
2022/08/30 02:00:33;;;;;;;25.95;12.65;;;;;;;;;;6084373;23;20222;-89
2022/08/30 02:03:38;;;;;;;22.05;13.25;;;;;;;;;;6083370;23;20173;-87
2022/08/30 02:06:44;;;;;;;22.35;12.23;;;;;;;;;;6084446;23;20174;-89
2022/08/30 02:09:50;;;;;;;22.25;12.18;;;;;;;;;;6083442;23;20202;-88
2022/08/30 02:12:55;;;;;;;38.60;12.93;;;;;;;;;;6084026;23;20194;-88
2022/08/30 02:16:00;;;;;;;27.17;12.75;;;;;;;;;;6083825;23;20242;-87
2022/08/30 02:19:05;;;;;;;25.52;13.18;;;;;;;;;;6084816;23;20195;-88
2022/08/30 02:22:10;;;;;;;20.00;12.43;;;;;;;;;;6103087;23;20173;-88
2022/08/30 02:25:16;;;;;;;32.30;12.93;;;;;;;;;;6085543;23;20174;-91
2022/08/30 02:28:21;;;;;;;26.45;13.38;;;;;;;;;;6085328;23;20199;-89
2022/08/30 02:31:26;;;;;;;25.58;13.68;;;;;;;;;;6103399;23;20174;-89
2022/08/30 02:34:31;;;;;;;22.10;13.25;;;;;;;;;;6085927;23;20310;-89
2022/08/30 02:37:36;;;;;;;37.50;13.38;;;;;;;;;;6085770;23;20673;-89
2022/08/30 02:40:43;;;;;;;38.92;13.85;;;;;;;;;;6085925;23;20174;-87
2022/08/30 02:43:48;;;;;;;33.97;14.55;;;;;;;;;;6084340;23;20269;-87
2022/08/30 02:46:55;;;;;;;40.83;13.85;;;;;;;;;;6085475;23;20546;-88
2022/08/30 02:50:00;;;;;;;25.45;13.05;;;;;;;;;;6085851;23;20174;-88
2022/08/30 02:53:04;;;;;;;25.88;12.50;;;;;;;;;;6085931;23;20546;-88
2022/08/30 02:56:11;;;;;;;25.80;13.30;;;;;;;;;;6085896;23;20197;-88
2022/08/30 02:59:17;;;;;;;27.83;13.57;;;;;;;;;;6085351;23;20178;-89
2022/08/30 03:02:22;;;;;;;48.05;13.65;;;;;;;;;;6084926;23;20169;-88
2022/08/30 03:05:27;;;;;;;28.13;12.82;;;;;;;;;;6102567;23;20638;-88
2022/08/30 03:08:33;;;;;;;30.33;13.68;;;;;;;;;;6085514;23;20609;-88
2022/08/30 03:11:41;;;;;;;46.13;13.50;;;;;;;;;;6085043;23;20691;-88
2022/08/30 03:14:47;;;;;;;30.00;12.35;;;;;;;;;;6085129;23;20209;-88
2022/08/30 03:17:52;;;;;;;94.78;14.50;;;;;;;;;;6083995;23;20174;-87
2022/08/30 03:20:57;;;;;;;30.45;13.70;;;;;;;;;;6083937;23;20305;-88
2022/08/30 03:24:02;;;;;;;28.42;13.40;;;;;;;;;;6084503;23;20177;-87
2022/08/30 03:27:08;;;;;;;23.55;13.52;;;;;;;;;;6084330;23;20246;-87
2022/08/30 03:30:14;;;;;;;30.05;14.10;;;;;;;;;;6083577;23;20290;-89
2022/08/30 03:33:19;;;;;;;29.90;14.38;;;;;;;;;;6083039;23;20203;-87
2022/08/30 03:36:24;;;;;;;27.00;13.45;;;;;;;;;;6083868;23;20196;-88
2022/08/30 03:39:30;;;;;;;39.67;15.05;;;;;;;;;;6084438;23;20189;-87
2022/08/30 03:42:37;;;;;;;106.05;14.98;;;;;;;;;;6084288;23;20186;-87
2022/08/30 03:45:42;;;;;;;34.78;14.38;;;;;;;;;;6084237;23;20294;-88
2022/08/30 03:48:47;;;;;;;43.28;13.77;;;;;;;;;;6083885;23;20297;-87
2022/08/30 03:51:52;;;;;;;25.30;13.63;;;;;;;;;;6066068;23;20177;-88
2022/08/30 03:54:59;;;;;;;24.58;13.93;;;;;;;;;;6083820;23;20195;-87
2022/08/30 03:58:08;;;;;;;26.33;13.10;;;;;;;;;;6084171;23;20502;-88
2022/08/30 04:05:02;;;;;;;22.85;13.32;;;;;;;;;;6083232;23;20208;-87
2022/08/30 04:08:07;;;;;;;30.52;12.70;;;;;;;;;;6084037;23;20303;-88
2022/08/30 04:11:13;;;;;;;26.90;14.65;;;;;;;;;;6084123;23;20237;-88
2022/08/30 04:14:22;;;;;;;27.15;13.32;;;;;;;;;;6083120;23;20194;-87
2022/08/30 04:17:27;;;;;;;29.58;13.75;;;;;;;;;;6084744;23;20473;-87
2022/08/30 04:20:32;;;;;;;35.25;14.63;;;;;;;;;;6083234;23;20170;-86
2022/08/30 04:23:37;;;;;;;26.75;13.52;;;;;;;;;;6083262;23;20186;-86
2022/08/30 04:26:42;;;;;;;38.63;12.20;;;;;;;;;;6084475;23;20237;-87
2022/08/30 04:29:49;;;;;;;31.75;12.43;;;;;;;;;;6102426;23;20182;-87
2022/08/30 04:32:54;;;;;;;35.63;14.63;;;;;;;;;;6083873;23;20173;-86
2022/08/30 04:36:03;;;;;;;29.13;13.57;;;;;;;;;;6083100;23;20213;-88
2022/08/30 04:39:08;;;;;;;30.88;14.15;;;;;;;;;;6084402;23;20178;-87
2022/08/30 04:42:14;;;;;;;47.63;13.65;;;;;;;;;;6084496;23;20174;-87
2022/08/30 04:45:22;;;;;;;38.33;13.40;;;;;;;;;;6083841;23;20286;-87
2022/08/30 04:49:00;;;;;;;43.80;14.15;;;;;;;;;;6085068;23;20174;-87
2022/08/30 04:52:07;;;;;;;32.50;13.98;;;;;;;;;;6081984;23;20173;-88
2022/08/30 04:55:12;;;;;;;33.15;14.15;;;;;;;;;;6083737;23;20252;-87
2022/08/30 04:58:17;;;;;;;32.47;13.00;;;;;;;;;;6084557;23;20256;-88
2022/08/30 05:01:25;;;;;;;27.77;13.77;;;;;;;;;;6084543;23;20173;-86
2022/08/30 05:05:38;;;;;;;24.80;13.68;;;;;;;;;;6083494;23;20174;-88
2022/08/30 05:08:02;;;;;;;25.58;14.20;;;;;;;;;;6089852;23;20766;-87
2022/08/30 05:11:08;;;;;;;29.65;14.30;;;;;;;;;;6085192;23;20177;-89
2022/08/30 05:14:13;;;;;;;25.40;13.98;;;;;;;;;;6085246;23;20205;-87
2022/08/30 05:17:20;;;;;;;26.85;14.15;;;;;;;;;;6087960;23;20185;-89
2022/08/30 05:20:25;;;;;;;40.58;14.40;;;;;;;;;;6084338;23;20166;-89
2022/08/30 05:23:30;;;;;;;30.88;14.50;;;;;;;;;;6084904;23;20169;-88
2022/08/30 05:26:38;;;;;;;32.22;14.60;;;;;;;;;;6085300;23;20205;-91
2022/08/30 05:29:42;;;;;;;27.13;14.15;;;;;;;;;;6086534;23;20603;-89
2022/08/30 05:36:21;;;;;;;24.27;12.30;;;;;;;;;;6104248;23;20578;-90
2022/08/30 05:39:26;;;;;;;23.02;12.85;;;;;;;;;;6104519;23;20197;-89
2022/08/30 05:42:32;;;;;;;25.00;12.60;;;;;;;;;;6086084;23;20181;-87
2022/08/30 05:45:37;;;;;;;22.00;13.07;;;;;;;;;;6088007;23;20626;-90
2022/08/30 05:48:43;;;;;;;25.55;12.50;;;;;;;;;;6103333;23;20286;-88
2022/08/30 05:51:49;;;;;;;21.92;11.98;;;;;;;;;;6102102;23;20235;-90
2022/08/30 05:54:57;;;;;;;18.35;11.60;;;;;;;;;;6086155;23;20253;-89
2022/08/30 05:58:03;;;;;;;17.13;11.15;;;;;;;;;;6105187;23;20174;-89
2022/08/30 06:01:08;;;;;;;17.88;11.77;;;;;;;;;;6088442;23;20246;-87
2022/08/30 06:04:14;;;;;;;19.92;11.55;;;;;;;;;;6102901;23;20177;-88
2022/08/30 06:07:19;;;;;;;18.23;11.63;;;;;;;;;;6103442;23;20170;-88
2022/08/30 06:10:25;;;;;;;17.45;11.43;;;;;;;;;;6086125;23;20153;-89
2022/08/30 06:13:31;;;;;;;20.60;11.27;;;;;;;;;;6104035;23;20618;-88
2022/08/30 06:16:37;;;;;;;22.33;13.18;;;;;;;;;;6104262;23;20198;-88
2022/08/30 06:19:44;;;;;;;18.58;11.18;;;;;;;;;;6087445;23;20182;-90
2022/08/30 06:22:49;;;;;;;18.15;11.52;;;;;;;;;;6088015;23;20174;-89
2022/08/30 06:25:54;;;;;;;23.60;11.35;;;;;;;;;;6104646;23;20622;-88
2022/08/30 06:28:59;;;;;;;20.75;10.63;;;;;;;;;;6087134;23;20170;-89
2022/08/30 06:32:05;;;;;;;18.70;11.77;;;;;;;;;;6088836;23;20177;-89
2022/08/30 06:35:11;;;;;;;20.30;11.77;;;;;;;;;;6105064;23;20630;-89
2022/08/30 06:38:16;;;;;;;16.13;10.85;;;;;;;;;;6104876;23;20169;-89
2022/08/30 06:41:26;;;;;;;16.88;11.30;;;;;;;;;;6104284;23;20173;-88
2022/08/30 06:44:31;;;;;;;18.17;10.25;;;;;;;;;;6086871;23;20173;-88
2022/08/30 06:47:36;;;;;;;14.75;10.43;;;;;;;;;;6104356;23;20170;-90
2022/08/30 06:50:43;;;;;;;14.68;9.80;;;;;;;;;;6089080;23;20166;-90
2022/08/30 06:53:49;;;;;;;16.38;9.95;;;;;;;;;;6089424;23;20618;-88
2022/08/30 06:56:54;;;;;;;16.00;8.98;;;;;;;;;;6087829;23;20184;-88
2022/08/30 07:00:01;;;;;;;14.65;9.18;;;;;;;;;;6086757;23;20170;-88
2022/08/30 07:03:06;;;;;;;13.07;8.60;;;;;;;;;;6088467;23;20202;-90
2022/08/30 07:06:12;;;;;;;12.32;8.13;;;;;;;;;;6089618;23;20501;-87
2022/08/30 07:09:18;;;;;;;10.48;7.43;;;;;;;;;;6087789;23;20225;-89
2022/08/30 07:12:23;;;;;;;13.43;8.00;;;;;;;;;;6091055;23;20751;-87
2022/08/30 07:15:28;;;;;;;12.27;7.70;;;;;;;;;;6085521;23;20173;-88
2022/08/30 07:18:53;;;;;;;11.68;7.75;;;;;;;;;;6085666;23;20637;-88
2022/08/30 07:22:00;;;;;;;13.25;7.32;;;;;;;;;;6086465;23;20170;-88
2022/08/30 07:25:05;;;;;;;12.93;7.68;;;;;;;;;;6086830;23;20189;-88
2022/08/30 07:28:11;;;;;;;16.70;9.05;;;;;;;;;;6087590;23;20614;-90
2022/08/30 07:31:17;;;;;;;11.10;7.80;;;;;;;;;;6086891;23;20166;-89
2022/08/30 07:34:24;;;;;;;12.15;7.45;;;;;;;;;;6091004;23;20265;-89
2022/08/30 07:37:31;;;;;;;10.77;7.18;;;;;;;;;;6092011;23;20550;-89
2022/08/30 07:40:40;;;;;;;11.02;7.80;;;;;;;;;;6108460;23;20228;-89
2022/08/30 07:43:47;;;;;;;11.07;7.50;;;;;;;;;;6092903;23;20182;-88
2022/08/30 07:46:53;;;;;;;14.20;7.22;;;;;;;;;;6089803;23;20173;-89
2022/08/30 07:50:00;;;;;;;12.57;7.20;;;;;;;;;;6092330;23;20166;-89
2022/08/30 07:53:07;;;;;;;10.90;7.38;;;;;;;;;;6107860;23;20173;-88
2022/08/30 07:56:12;;;;;;;14.07;6.85;;;;;;;;;;6085589;23;20601;-88
2022/08/30 07:59:17;;;;;;;12.88;6.07;;;;;;;;;;6086896;23;20174;-89
2022/08/30 08:02:24;;;;;;;13.00;7.30;;;;;;;;;;6088205;23;20226;-89
2022/08/30 08:05:29;;;;;;;10.88;6.50;;;;;;;;;;6092906;23;20181;-87
2022/08/30 08:08:36;;;;;;;10.25;6.88;;;;;;;;;;6089182;23;20607;-89
2022/08/30 08:11:41;;;;;;;11.38;6.60;;;;;;;;;;6088113;23;20185;-88
2022/08/30 08:14:46;;;;;;;10.70;6.57;;;;;;;;;;6085395;23;20177;-88
2022/08/30 08:17:51;;;;;;;12.82;6.63;;;;;;;;;;6085171;23;20281;-89
2022/08/30 08:20:56;;;;;;;8.23;6.70;;;;;;;;;;6087741;23;20178;-88
2022/08/30 08:24:03;;;;;;;9.98;6.82;;;;;;;;;;6107249;23;20166;-89
2022/08/30 08:27:08;;;;;;;10.75;6.40;;;;;;;;;;6089869;23;20177;-89
2022/08/30 08:30:13;;;;;;;9.20;6.22;;;;;;;;;;6088785;23;20264;-89
2022/08/30 08:33:18;;;;;;;10.93;6.18;;;;;;;;;;6087479;23;20165;-89
2022/08/30 08:36:24;;;;;;;13.63;6.50;;;;;;;;;;6088408;23;20285;-89
2022/08/30 08:39:30;;;;;;;11.65;6.30;;;;;;;;;;6089830;23;20173;-89
2022/08/30 08:42:42;;;;;;;10.63;5.18;;;;;;;;;;6087671;23;20653;-90
2022/08/30 08:45:49;;;;;;;13.93;5.82;;;;;;;;;;6087310;23;20258;-89
2022/08/30 08:48:56;;;;;;;10.90;5.72;;;;;;;;;;6089279;23;20173;-89
2022/08/30 08:55:27;;;;;;;7.10;5.28;;;;;;;;;;6090734;23;20178;-89
2022/08/30 08:58:35;;;;;;;9.30;5.38;;;;;;;;;;6089208;23;20621;-88
2022/08/30 09:01:41;;;;;;;10.18;5.40;;;;;;;;;;6089323;23;20182;-89
2022/08/30 09:04:46;;;;;;;10.30;5.35;;;;;;;;;;6088266;23;20210;-88
2022/08/30 09:07:54;;;;;;;9.20;5.07;;;;;;;;;;6087721;23;20157;-88
2022/08/30 09:11:02;;;;;;;8.88;5.35;;;;;;;;;;6087982;23;20256;-89
2022/08/30 09:14:10;;;;;;;13.25;5.43;;;;;;;;;;6088543;23;20262;-89
2022/08/30 09:17:17;;;;;;;10.90;5.80;;;;;;;;;;6089581;23;20197;-89
2022/08/30 09:20:27;;;;;;;8.70;5.47;;;;;;;;;;6088728;23;20165;-90
2022/08/30 09:23:33;;;;;;;12.77;5.80;;;;;;;;;;6087079;23;20165;-91
2022/08/30 09:26:40;;;;;;;12.65;5.47;;;;;;;;;;6085979;23;20189;-89
2022/08/30 09:29:51;;;;;;;10.85;4.97;;;;;;;;;;6088381;23;20170;-89
2022/08/30 09:32:57;;;;;;;7.70;5.05;;;;;;;;;;6089062;23;20173;-90
2022/08/30 09:36:11;;;;;;;9.98;5.38;;;;;;;;;;6087787;23;20169;-90
2022/08/30 09:39:18;;;;;;;10.88;5.25;;;;;;;;;;6089904;23;20152;-90
2022/08/30 09:42:25;;;;;;;8.95;5.53;;;;;;;;;;6087129;23;20169;-89
2022/08/30 09:45:32;;;;;;;13.13;5.50;;;;;;;;;;6087708;23;20174;-89
2022/08/30 09:48:39;;;;;;;8.95;5.28;;;;;;;;;;6087766;23;20173;-89
2022/08/30 09:51:51;;;;;;;11.57;5.35;;;;;;;;;;6088253;23;20667;-90
2022/08/30 09:55:07;;;;;;;10.15;5.57;;;;;;;;;;6088000;23;20157;-90
2022/08/30 09:58:17;;;;;;;8.77;5.13;;;;;;;;;;6088286;23;20184;-90
2022/08/30 10:01:24;;;;;;;9.95;5.13;;;;;;;;;;6087888;23;20208;-91
2022/08/30 10:04:35;;;;;;;8.85;5.20;;;;;;;;;;6087827;23;20189;-89
2022/08/30 10:07:44;;;;;;;11.05;5.00;;;;;;;;;;6090383;23;20246;-90
2022/08/30 10:10:52;;;;;;;11.30;4.88;;;;;;;;;;6086038;23;20172;-89
2022/08/30 10:14:29;;;;;;;8.52;4.93;;;;;;;;;;6088012;23;20229;-90
2022/08/30 10:17:40;;;;;;;8.63;5.10;;;;;;;;;;6088594;23;20517;-91
2022/08/30 10:20:50;;;;;;;8.05;5.15;;;;;;;;;;6088417;23;20626;-90
2022/08/30 10:23:58;;;;;;;7.72;5.03;;;;;;;;;;6087483;23;20177;-89
2022/08/30 10:27:06;;;;;;;6.78;4.55;;;;;;;;;;6087953;23;20245;-89
2022/08/30 10:30:14;;;;;;;6.43;4.50;;;;;;;;;;6088769;23;20194;-88
2022/08/30 10:33:21;;;;;;;8.43;5.25;;;;;;;;;;6087757;23;20237;-90
2022/08/30 10:36:29;;;;;;;18.23;5.57;;;;;;;;;;6089804;23;20169;-89
2022/08/30 10:39:39;;;;;;;8.23;5.47;;;;;;;;;;6088867;23;20173;-90
2022/08/30 10:42:45;;;;;;;7.35;4.65;;;;;;;;;;6087548;23;20487;-88
2022/08/30 10:45:52;;;;;;;13.15;5.30;;;;;;;;;;6088635;23;20178;-89
2022/08/30 10:48:59;;;;;;;12.55;5.15;;;;;;;;;;6087478;23;20198;-89
2022/08/30 10:52:10;;;;;;;7.78;4.50;;;;;;;;;;6091137;23;20173;-89
2022/08/30 10:55:18;;;;;;;8.05;4.90;;;;;;;;;;6085119;23;20176;-90
2022/08/30 10:58:23;;;;;;;10.15;4.80;;;;;;;;;;6091144;23;20220;-91
2022/08/30 11:01:37;;;;;;;6.80;4.60;;;;;;;;;;6088298;23;20173;-90
2022/08/30 11:04:53;;;;;;;9.02;4.90;;;;;;;;;;6089527;23;20558;-90
2022/08/30 11:08:05;;;;;;;8.35;4.65;;;;;;;;;;6087414;23;20194;-91
2022/08/30 11:14:43;;;;;;;10.48;4.78;;;;;;;;;;6097580;23;20273;-91
2022/08/30 11:18:13;;;;;;;6.35;4.00;;;;;;;;;;6098239;23;20221;-91
2022/08/30 11:21:21;;;;;;;8.43;4.25;;;;;;;;;;6092214;23;20169;-91
2022/08/30 11:24:27;;;;;;;7.38;3.92;;;;;;;;;;6092363;23;20164;-89
2022/08/30 11:27:59;;;;;;;10.55;4.30;;;;;;;;;;6091816;23;20169;-91
2022/08/30 11:31:06;;;;;;;13.60;4.65;;;;;;;;;;6080535;23;20624;-90
2022/08/30 11:34:13;;;;;;;9.40;4.10;;;;;;;;;;6089867;23;20205;-90
2022/08/30 11:37:32;;;;;;;7.97;4.03;;;;;;;;;;6092036;23;20517;-90
2022/08/30 11:40:47;;;;;;;7.20;4.25;;;;;;;;;;6092618;23;20629;-89
2022/08/30 11:43:54;;;;;;;10.18;4.50;;;;;;;;;;6090580;23;20186;-90
2022/08/30 11:47:00;;;;;;;9.48;4.50;;;;;;;;;;6090582;23;20186;-89
2022/08/30 11:50:09;;;;;;;10.68;4.05;;;;;;;;;;6091653;23;20216;-88
2022/08/30 11:53:20;;;;;;;9.05;4.20;;;;;;;;;;6091723;23;20395;-90
2022/08/30 11:56:29;;;;;;;6.72;4.10;;;;;;;;;;6091420;23;20169;-87
2022/08/30 11:59:39;;;;;;;9.80;4.30;;;;;;;;;;6092617;23;20223;-90
2022/08/30 12:02:47;;;;;;;7.07;4.00;;;;;;;;;;6090782;23;20242;-90
2022/08/30 12:05:58;;;;;;;7.72;4.03;;;;;;;;;;6090075;23;20286;-89
2022/08/30 12:09:04;;;;;;;8.38;4.30;;;;;;;;;;6091261;23;20173;-89
2022/08/30 12:12:10;;;;;;;12.75;5.10;;;;;;;;;;6091459;23;20169;-90
2022/08/30 12:15:27;;;;;;;13.18;4.50;;;;;;;;;;6090350;23;20164;-91
2022/08/30 12:18:44;;;;;;;6.20;3.95;;;;;;;;;;6088220;23;20193;-89
2022/08/30 12:21:56;;;;;;;7.60;4.07;;;;;;;;;;6088595;23;20169;-91
2022/08/30 12:25:03;;;;;;;10.05;4.60;;;;;;;;;;6090320;23;20623;-90
2022/08/30 12:28:10;;;;;;;9.10;4.22;;;;;;;;;;6089370;23;20185;-89
2022/08/30 12:31:16;;;;;;;9.75;3.92;;;;;;;;;;6090749;23;20178;-90
2022/08/30 12:34:25;;;;;;;10.40;3.92;;;;;;;;;;6090997;23;20288;-90
2022/08/30 12:37:35;;;;;;;7.35;3.50;;;;;;;;;;6093045;23;20197;-92
2022/08/30 12:40:49;;;;;;;7.45;3.47;;;;;;;;;;6089371;23;20177;-87
2022/08/30 12:43:55;;;;;;;5.50;3.40;;;;;;;;;;6087177;23;20169;-90
2022/08/30 12:47:03;;;;;;;9.63;4.10;;;;;;;;;;6090956;23;20194;-90
2022/08/30 12:50:09;;;;;;;8.38;3.92;;;;;;;;;;6089146;23;20177;-89
2022/08/30 12:53:22;;;;;;;8.00;3.80;;;;;;;;;;6095243;23;20156;-90
2022/08/30 12:56:45;;;;;;;7.40;3.40;;;;;;;;;;6090535;23;20169;-90
2022/08/30 12:59:56;;;;;;;4.65;3.42;;;;;;;;;;6090257;23;20169;-89
2022/08/30 13:03:02;;;;;;;9.93;3.50;;;;;;;;;;6090602;23;20256;-91
2022/08/30 13:06:10;;;;;;;8.45;3.90;;;;;;;;;;6089973;23;20165;-90
2022/08/30 13:09:28;;;;;;;5.20;3.72;;;;;;;;;;6092632;23;20172;-89
2022/08/30 13:12:37;;;;;;;6.07;3.55;;;;;;;;;;6089836;23;20172;-90
2022/08/30 13:15:42;;;;;;;6.35;3.72;;;;;;;;;;6091719;23;20173;-88
2022/08/30 13:18:48;;;;;;;6.55;3.65;;;;;;;;;;6092701;23;20197;-92
2022/08/30 13:21:54;;;;;;;5.13;3.50;;;;;;;;;;6092405;23;20242;-91
2022/08/30 13:25:01;;;;;;;6.93;3.50;;;;;;;;;;6091861;23;20251;-91
2022/08/30 13:28:07;;;;;;;5.05;3.10;;;;;;;;;;6089342;23;20182;-92
2022/08/30 13:31:13;;;;;;;7.85;3.40;;;;;;;;;;6088558;23;20173;-89
2022/08/30 13:34:21;;;;;;;4.90;3.30;;;;;;;;;;6088837;23;20192;-91
2022/08/30 13:37:26;;;;;;;8.63;3.45;;;;;;;;;;6087968;23;20519;-89
2022/08/30 13:40:34;;;;;;;7.70;3.40;;;;;;;;;;6088136;23;20173;-91
2022/08/30 13:43:39;;;;;;;5.25;3.25;;;;;;;;;;6088243;23;20253;-90
2022/08/30 13:47:15;;;;;;;5.13;3.30;;;;;;;;;;6088902;23;20177;-90
2022/08/30 13:50:20;;;;;;;6.93;4.43;;;;;;;;;;6089664;23;20237;-91
2022/08/30 13:53:25;;;;;;;5.45;3.42;;;;;;;;;;6089308;23;20168;-90
2022/08/30 13:56:35;;;;;;;6.47;3.40;;;;;;;;;;6089635;23;20633;-89
2022/08/30 13:59:40;;;;;;;4.68;3.28;;;;;;;;;;6091149;23;20173;-90
2022/08/30 14:02:46;;;;;;;6.90;3.42;;;;;;;;;;6091951;23;20190;-89
2022/08/30 14:05:52;;;;;;;6.10;3.42;;;;;;;;;;6091809;23;20173;-88
2022/08/30 14:08:57;;;;;;;6.78;3.40;;;;;;;;;;6092206;23;20609;-90
2022/08/30 14:12:05;;;;;;;7.55;3.20;;;;;;;;;;6088735;23;20496;-89
2022/08/30 14:15:10;;;;;;;7.63;3.47;;;;;;;;;;6090425;23;20173;-88
2022/08/30 14:18:17;;;;;;;9.52;3.45;;;;;;;;;;6089395;23;20253;-90
2022/08/30 14:21:23;;;;;;;7.13;3.80;;;;;;;;;;6092411;23;20300;-89
2022/08/30 14:24:28;;;;;;;6.00;3.55;;;;;;;;;;6092796;23;20184;-87
2022/08/30 14:27:34;;;;;;;7.63;3.45;;;;;;;;;;6090626;23;20310;-89
2022/08/30 14:30:39;;;;;;;6.30;3.63;;;;;;;;;;6090617;23;20359;-89
2022/08/30 14:33:45;;;;;;;6.22;3.47;;;;;;;;;;6088857;23;20240;-90
2022/08/30 14:36:50;;;;;;;7.25;3.53;;;;;;;;;;6090800;23;20189;-91
2022/08/30 14:39:56;;;;;;;6.55;3.38;;;;;;;;;;6090605;23;20636;-90
2022/08/30 14:43:03;;;;;;;6.85;3.50;;;;;;;;;;6092189;23;20160;-90
2022/08/30 14:46:42;;;;;;;6.20;3.58;;;;;;;;;;6093588;23;20172;-89
2022/08/30 14:49:48;;;;;;;8.35;4.00;;;;;;;;;;6093094;23;20218;-90
2022/08/30 14:52:53;;;;;;;6.78;3.88;;;;;;;;;;6092930;23;20248;-89
2022/08/30 14:55:58;;;;;;;7.68;3.60;;;;;;;;;;6094396;23;20281;-90
2022/08/30 14:59:05;;;;;;;5.18;3.17;;;;;;;;;;6092462;23;20196;-88
2022/08/30 15:02:10;;;;;;;7.80;3.40;;;;;;;;;;6092863;23;20625;-89
2022/08/30 15:05:15;;;;;;;9.32;3.90;;;;;;;;;;6093768;23;20261;-89
2022/08/30 15:08:20;;;;;;;5.32;3.80;;;;;;;;;;6093444;23;20189;-87
2022/08/30 15:11:26;;;;;;;6.80;4.13;;;;;;;;;;6093262;23;20205;-89
2022/08/30 15:14:32;;;;;;;7.97;3.78;;;;;;;;;;6091690;23;20180;-88
2022/08/30 15:17:38;;;;;;;5.30;3.72;;;;;;;;;;6091461;23;20172;-89
2022/08/30 15:20:46;;;;;;;7.65;3.58;;;;;;;;;;6091481;23;20193;-91
2022/08/30 15:23:52;;;;;;;4.90;3.65;;;;;;;;;;6091964;23;20178;-90
2022/08/30 15:26:58;;;;;;;7.18;3.78;;;;;;;;;;6089622;23;20173;-89
2022/08/30 15:30:04;;;;;;;6.50;3.63;;;;;;;;;;6113140;23;20245;-89
2022/08/30 15:33:10;;;;;;;6.90;3.78;;;;;;;;;;6110013;23;20221;-88
2022/08/30 15:36:15;;;;;;;7.72;3.60;;;;;;;;;;6089381;23;20169;-89
2022/08/30 15:39:20;;;;;;;6.97;3.75;;;;;;;;;;6091388;23;20247;-89
2022/08/30 15:42:26;;;;;;;7.68;3.97;;;;;;;;;;6091275;23;20173;-89
2022/08/30 15:45:36;;;;;;;6.03;3.67;;;;;;;;;;6107868;23;20169;-89
2022/08/30 15:48:45;;;;;;;7.13;4.15;;;;;;;;;;6091237;23;20165;-89
2022/08/30 15:51:50;;;;;;;9.15;4.10;;;;;;;;;;6091157;23;20244;-89
2022/08/30 15:54:56;;;;;;;6.15;3.65;;;;;;;;;;6089398;23;20182;-89
2022/08/30 15:58:01;;;;;;;5.80;3.70;;;;;;;;;;6088212;23;20174;-88
2022/08/30 16:01:09;;;;;;;8.85;4.40;;;;;;;;;;6090083;23;20247;-87
2022/08/30 16:04:15;;;;;;;7.75;4.10;;;;;;;;;;6089995;23;20174;-88
2022/08/30 16:07:21;;;;;;;7.60;4.25;;;;;;;;;;6091046;23;20182;-89
2022/08/30 16:10:29;;;;;;;11.57;5.35;;;;;;;;;;6090850;23;20169;-89
2022/08/30 16:13:34;;;;;;;7.90;4.05;;;;;;;;;;6091226;23;20189;-86
2022/08/30 16:16:41;;;;;;;7.82;3.90;;;;;;;;;;6089781;23;20239;-87
2022/08/30 16:19:46;;;;;;;8.15;4.25;;;;;;;;;;6089776;23;20265;-90
2022/08/30 16:22:51;;;;;;;7.22;3.70;;;;;;;;;;6087729;23;20500;-90
2022/08/30 16:25:57;;;;;;;8.23;4.22;;;;;;;;;;6088158;23;20169;-89
2022/08/30 16:29:02;;;;;;;7.55;4.43;;;;;;;;;;6088186;23;20173;-89
2022/08/30 16:32:09;;;;;;;6.75;4.60;;;;;;;;;;6088918;23;20170;-89
2022/08/30 16:35:14;;;;;;;7.25;4.18;;;;;;;;;;6089645;23;20197;-89
2022/08/30 16:38:19;;;;;;;8.20;5.38;;;;;;;;;;6090145;23;20213;-89
2022/08/30 16:41:25;;;;;;;8.07;4.90;;;;;;;;;;6092140;23;20174;-87
2022/08/30 16:44:31;;;;;;;62.03;18.80;;;;;;;;;;6087952;23;20173;-88
2022/08/30 16:47:37;;;;;;;21.58;9.48;;;;;;;;;;6088652;23;20608;-88
2022/08/30 16:50:44;;;;;;;10.73;5.28;;;;;;;;;;6087671;23;20165;-88
2022/08/30 16:53:50;;;;;;;11.55;4.50;;;;;;;;;;6088357;23;20190;-89
2022/08/30 16:56:55;;;;;;;9.43;4.67;;;;;;;;;;6088781;23;20702;-89
2022/08/30 17:00:00;;;;;;;12.57;5.22;;;;;;;;;;6090161;23;20269;-88
2022/08/30 17:03:07;;;;;;;8.68;3.92;;;;;;;;;;6085939;23;20170;-88
2022/08/30 17:06:12;;;;;;;8.15;4.90;;;;;;;;;;6087160;23;20174;-89
2022/08/30 17:09:18;;;;;;;10.30;5.97;;;;;;;;;;6085807;23;20170;-86
2022/08/30 17:12:23;;;;;;;11.38;5.40;;;;;;;;;;6085891;23;20202;-89
2022/08/30 17:15:28;;;;;;;9.88;5.30;;;;;;;;;;6085470;23;20202;-90
2022/08/30 17:18:35;;;;;;;9.18;5.28;;;;;;;;;;6086150;23;20313;-88
2022/08/30 17:21:40;;;;;;;9.65;5.40;;;;;;;;;;6085780;23;20174;-88
2022/08/30 17:24:46;;;;;;;9.95;5.18;;;;;;;;;;6085409;23;20487;-87
2022/08/30 17:27:50;;;;;;;12.70;6.60;;;;;;;;;;6086166;23;20633;-88
2022/08/30 17:30:55;;;;;;;9.50;5.07;;;;;;;;;;6088333;23;20169;-89
2022/08/30 17:34:03;;;;;;;11.95;5.68;;;;;;;;;;6089624;23;20193;-89
2022/08/30 17:37:08;;;;;;;9.82;5.20;;;;;;;;;;6089504;23;20610;-89
2022/08/30 17:40:13;;;;;;;11.02;5.55;;;;;;;;;;6086970;23;20197;-87
2022/08/30 17:43:18;;;;;;;11.40;5.47;;;;;;;;;;6088693;23;20158;-89
2022/08/30 17:46:23;;;;;;;9.65;5.70;;;;;;;;;;6090114;23;20174;-87
2022/08/30 17:49:32;;;;;;;15.02;8.70;;;;;;;;;;6088388;23;20614;-87
2022/08/30 17:52:37;;;;;;;11.60;5.60;;;;;;;;;;6090885;23;20674;-88
2022/08/30 17:55:48;;;;;;;11.07;5.90;;;;;;;;;;6089469;23;20173;-88
2022/08/30 17:58:53;;;;;;;11.68;5.55;;;;;;;;;;6090877;23;20213;-88
2022/08/30 18:02:01;;;;;;;13.65;6.30;;;;;;;;;;6090008;23;20256;-89
2022/08/30 18:05:10;;;;;;;14.13;6.20;;;;;;;;;;6090359;23;20222;-88
2022/08/30 18:08:15;;;;;;;12.40;6.65;;;;;;;;;;6091665;23;20162;-88
2022/08/30 18:11:21;;;;;;;10.50;6.18;;;;;;;;;;6089834;23;20182;-90
2022/08/30 18:14:26;;;;;;;12.00;6.53;;;;;;;;;;6089805;23;20178;-87
2022/08/30 18:17:31;;;;;;;11.45;6.40;;;;;;;;;;6097108;23;20218;-89
2022/08/30 18:20:38;;;;;;;11.50;6.50;;;;;;;;;;6089810;23;20669;-88
2022/08/30 18:23:43;;;;;;;9.73;6.30;;;;;;;;;;6090267;23;20174;-88
2022/08/30 18:26:48;;;;;;;11.15;6.10;;;;;;;;;;6091380;23;20173;-89
2022/08/30 18:29:53;;;;;;;14.45;6.47;;;;;;;;;;6090040;23;20238;-89
2022/08/30 18:32:58;;;;;;;13.70;6.72;;;;;;;;;;6089362;23;20170;-88
2022/08/30 18:36:05;;;;;;;12.65;6.35;;;;;;;;;;6090279;23;20173;-88
2022/08/30 18:39:11;;;;;;;11.70;6.43;;;;;;;;;;6105770;23;20194;-88
2022/08/30 18:42:16;;;;;;;10.65;7.18;;;;;;;;;;6088807;23;20178;-89